Latest Coastal Weather Observations for Dunalley

IDT60701

Issued at 3:12 pm EST Wednesday 28 September 2016 (issued every 10 minutes, with the page automatically refreshed every 10 minutes)

About coastal observations | Map of coastal stations | Coastal observations for TAS | Marine services | Other Formats
Station Details ID: 094254 Name: DUNALLEY (STROUD POINT) Lat: -42.90 Lon: 147.79 Height: 12.43 m
Data from the previous 72 hours. | See also: Recent months at Dunalley
Date/Time
EST
Temp
°C
Wind Pressure Rain since
9am
mm
Weather Cloud Vis
km
Sea
Height
m
Swell
Dir  Spd
kts
Gust
kts
hPa Trend Height
m
Period
s
Dir
28/03:00pm 14.3 ENE 16 19 1006.5 - 0.0 - - - - - - -
28/02:30pm 15.0 ENE 15 18 1006.9 - 0.0 - - - - - - -
28/02:00pm 14.7 ENE 13 17 1007.2 - 0.0 - - - - - - -
28/01:30pm 13.8 NE 14 16 1007.6 - 0.0 - - - - - - -
28/01:00pm 15.3 NE 12 15 1007.9 - 0.0 - - - - - - -
28/12:30pm 14.5 W 4 5 1008.3 - 0.0 - - - - - - -
28/12:00pm 14.6 W 4 5 1008.6 - 0.0 - - - - - - -
28/11:30am 14.2 W 4 6 1008.8 - 0.0 - - - - - - -
28/11:00am 13.7 W 5 6 1009.1 - 0.0 - - - - - - -
28/10:30am 13.3 W 4 5 1009.5 - 0.0 - - - - - - -
28/10:00am 13.2 W 6 7 1009.6 - 0.0 - - - - - - -
28/09:30am 13.3 W 6 7 1009.8 - 0.0 - - - - - - -
28/09:00am 12.8 W 6 8 1010.1 - 0.0 - - - - - - -
28/08:30am 12.5 W 6 8 1010.0 - 0.0 - - - - - - -
28/08:00am 12.1 WNW 7 10 1010.1 - 0.0 - - - - - - -
28/07:30am 11.5 W 6 8 1009.9 - 0.0 - - - - - - -
28/07:00am 10.6 WNW 6 8 1009.5 - 0.0 - - - - - - -
28/06:30am 9.7 WNW 7 10 1009.4 - 0.0 - - - - - - -
28/06:00am 9.7 NW 7 9 1009.0 - 0.0 - - - - - - -
28/05:30am 9.7 NW 8 11 1008.7 - 0.0 - - - - - - -
28/05:00am 9.5 NW 9 12 1008.5 - 0.0 - - - - - - -
28/04:30am 9.1 WNW 4 6 1008.3 - 0.0 - - - - - - -
28/04:00am 9.3 WNW 4 6 1008.1 - 0.0 - - - - - - -
28/03:30am 10.1 NW 4 8 1007.7 - 0.0 - - - - - - -
28/03:00am 10.9 NW 8 12 1007.6 - 0.0 - - - - - - -
28/02:30am 10.3 WNW 4 7 1007.4 - 0.0 - - - - - - -
28/02:00am 10.8 NW 6 8 1007.3 - 0.0 - - - - - - -
28/01:30am 10.5 NNE 5 9 1007.3 - 0.0 - - - - - - -
28/01:00am 9.6 NNE 4 6 1007.3 - 0.0 - - - - - - -
28/12:30am 9.9 NNE 1 3 1007.4 - 0.0 - - - - - - -
28/12:00am 10.0 NNE 5 6 1007.4 - 0.0 - - - - - - -
 
Date/Time
EST
Temp
°C
Wind Pressure Rain since
9am
mm
Weather Cloud Vis
km
Sea
Height
m
Swell
Dir  Spd
kts
Gust
kts
hPa Trend Height
m
Period
s
Dir
27/11:30pm 9.9 NNE 5 7 1007.4 - 0.0 - - - - - - -
27/11:00pm 10.1 NNE 3 4 1007.4 - 0.0 - - - - - - -
27/10:30pm 11.0 NNE 4 6 1007.4 - 0.0 - - - - - - -
27/10:00pm 10.7 NNE 4 7 1007.4 - 0.0 - - - - - - -
27/09:30pm 11.0 NNE 5 7 1007.5 - 0.0 - - - - - - -
27/09:00pm 11.6 NNE 4 7 1007.5 - 0.0 - - - - - - -
27/08:30pm 11.7 NNE 4 9 1007.5 - 0.0 - - - - - - -
27/08:00pm 11.9 NE 10 12 1007.3 - 0.0 - - - - - - -
27/07:30pm 11.6 NE 11 13 1007.1 - 0.0 - - - - - - -
27/07:00pm 11.6 NE 10 13 1007.2 - 0.0 - - - - - - -
27/06:30pm 12.3 NE 13 16 1006.8 - 0.0 - - - - - - -
27/06:00pm 12.5 ENE 14 17 1006.6 - 0.0 - - - - - - -
27/05:30pm 12.9 ENE 14 17 1006.5 - 0.0 - - - - - - -
27/05:00pm 13.4 NE 14 17 1006.4 - 0.0 - - - - - - -
27/04:30pm 13.9 NE 13 16 1006.3 - 0.0 - - - - - - -
27/04:00pm 14.5 NE 13 16 1006.4 - 0.0 - - - - - - -
27/03:30pm 14.7 NE 13 15 1006.5 - 0.0 - - - - - - -
27/03:00pm 15.0 NE 12 15 1006.4 - 0.0 - - - - - - -
27/02:30pm 15.7 NE 11 13 1006.5 - 0.0 - - - - - - -
27/02:00pm 15.6 NE 10 12 1006.8 - 0.0 - - - - - - -
27/01:30pm 15.9 NE 9 12 1006.9 - 0.0 - - - - - - -
27/01:00pm 15.2 WNW 4 7 1007.1 - 0.0 - - - - - - -
27/12:30pm 14.1 WNW 3 4 1007.5 - 0.0 - - - - - - -
27/12:00pm 12.8 WNW 3 4 1007.6 - 0.0 - - - - - - -
27/11:30am 12.7 WNW 3 4 1007.7 - 0.0 - - - - - - -
27/11:00am 11.9 WNW 3 5 1007.9 - 0.0 - - - - - - -
27/10:30am 11.9 WNW 3 4 1008.1 - 0.0 - - - - - - -
27/10:00am 11.0 WNW 4 5 1008.1 - 0.0 - - - - - - -
27/09:30am 10.9 WNW 4 5 1008.2 - 0.0 - - - - - - -
27/09:00am 10.7 WNW 4 5 1008.1 - 0.0 - - - - - - -
27/08:30am 10.3 WNW 6 7 1008.2 - 0.0 - - - - - - -
27/08:00am 9.8 WNW 5 6 1008.3 - 0.0 - - - - - - -
27/07:30am 9.2 WNW 2 2 1008.2 - 0.0 - - - - - - -
27/07:00am 8.4 CALM 0 0 1008.2 - 0.0 - - - - - - -
27/06:30am 7.8 CALM 0 0 1008.2 - 0.0 - - - - - - -
27/06:00am 7.3 CALM 0 0 1007.9 - 0.0 - - - - - - -
27/05:30am 7.3 WNW 1 2 1007.7 - 0.0 - - - - - - -
27/05:00am 8.2 CALM 0 0 1007.5 - 0.0 - - - - - - -
27/04:30am 8.2 WNW 1 1 1007.3 - 0.0 - - - - - - -
27/04:00am 7.4 WNW 2 3 1007.2 - 0.0 - - - - - - -
27/03:30am 7.5 CALM 0 0 1007.2 - 0.0 - - - - - - -
27/03:00am 7.9 WNW 2 2 1007.4 - 0.0 - - - - - - -
27/02:30am 6.8 WNW 2 3 1007.6 - 0.0 - - - - - - -
27/02:00am 7.6 WNW 3 4 1007.7 - 0.0 - - - - - - -
27/01:30am 8.8 CALM 0 0 1008.0 - 0.0 - - - - - - -
27/01:00am 8.1 WNW 1 2 1008.2 - 0.0 - - - - - - -
27/12:30am 8.7 CALM 0 0 1008.5 - 0.0 - - - - - - -
27/12:00am 8.7 WNW 2 3 1008.6 - 0.0 - - - - - - -
 
Date/Time
EST
Temp
°C
Wind Pressure Rain since
9am
mm
Weather Cloud Vis
km
Sea
Height
m
Swell
Dir  Spd
kts
Gust
kts
hPa Trend Height
m
Period
s
Dir
26/11:30pm 9.0 WNW 3 3 1008.7 - 0.0 - - - - - - -
26/11:00pm 8.8 WNW 3 4 1008.9 - 0.0 - - - - - - -
26/10:30pm 9.7 WNW 1 2 1009.0 - 0.0 - - - - - - -
26/10:00pm 10.1 WNW 4 5 1009.2 - 0.0 - - - - - - -
26/09:30pm 11.1 W 6 9 1009.3 - 0.0 - - - - - - -
26/09:00pm 11.0 NNE 8 11 1009.1 - 0.0 - - - - - - -
26/08:30pm 11.5 NE 11 14 1008.9 - 0.0 - - - - - - -
26/08:00pm 11.3 NE 11 13 1008.9 - 0.0 - - - - - - -
26/07:30pm 11.3 NE 13 17 1008.6 - 0.0 - - - - - - -
26/07:00pm 11.4 NE 13 15 1008.5 - 0.0 - - - - - - -
26/06:30pm 11.3 NE 13 15 1008.3 - 0.0 - - - - - - -
26/06:00pm 11.5 NE 14 17 1008.2 - 0.0 - - - - - - -
26/05:30pm 12.0 NE 14 17 1008.1 - 0.0 - - - - - - -
26/05:00pm 12.0 NE 16 19 1007.9 - 0.0 - - - - - - -
26/04:30pm 12.1 NE 16 19 1007.8 - 0.0 - - - - - - -
26/04:00pm 13.1 NE 14 17 1007.8 - 0.0 - - - - - - -
26/03:30pm 13.6 ENE 14 17 1007.8 - 0.0 - - - - - - -
26/03:00pm 13.9 ENE 13 15 1008.1 - 0.0 - - - - - - -
26/02:30pm 13.9 ENE 10 13 1008.2 - 0.0 - - - - - - -
26/02:00pm 13.9 ENE 10 13 1008.4 - 0.0 - - - - - - -
26/01:30pm 13.4 NE 12 15 1008.5 - 0.0 - - - - - - -
26/01:00pm 13.7 ENE 11 15 1008.6 - 0.0 - - - - - - -
26/12:30pm 14.9 NE 9 13 1009.1 - 0.0 - - - - - - -
26/12:00pm 13.6 NE 10 14 1009.5 - 0.0 - - - - - - -
26/11:30am 14.5 NE 11 13 1009.7 - 0.0 - - - - - - -
26/11:00am 12.4 NNW 4 7 1009.9 - 0.0 - - - - - - -
26/10:30am 11.3 NNW 4 5 1010.4 - 0.0 - - - - - - -
26/10:00am 11.8 NNW 3 4 1010.6 - 0.0 - - - - - - -
26/09:30am 11.5 NNW 4 6 1010.7 - 0.0 - - - - - - -
26/09:00am 11.8 NNW 3 5 1010.8 - 0.0 - - - - - - -
26/08:30am 11.4 NW 6 8 1010.9 - 0.0 - - - - - - -
26/08:00am 10.5 NNW 7 11 1011.1 - 0.0 - - - - - - -
26/07:30am 9.9 NNW 7 11 1011.1 - 0.0 - - - - - - -
26/07:00am 9.1 NNW 8 10 1011.1 - 0.0 - - - - - - -
26/06:30am 8.1 NW 7 9 1011.1 - 0.0 - - - - - - -
26/06:00am 7.9 NW 7 9 1010.9 - 0.0 - - - - - - -
26/05:30am 7.7 NNW 8 10 1010.6 - 0.0 - - - - - - -
26/05:00am 7.5 NNW 8 10 1010.5 - 0.0 - - - - - - -
26/04:30am 7.7 NW 8 10 1010.5 - 0.0 - - - - - - -
26/04:00am 8.2 NNW 8 10 1010.4 - 0.0 - - - - - - -
26/03:30am 8.0 NNW 8 12 1010.4 - 0.0 - - - - - - -
26/03:00am 8.1 NNW 8 11 1010.2 - 0.0 - - - - - - -
26/02:30am 8.1 NNW 9 13 1010.2 - 0.0 - - - - - - -
26/02:00am 8.4 NW 10 13 1010.4 - 0.0 - - - - - - -
26/01:30am 8.3 NW 10 14 1010.4 - 0.0 - - - - - - -
26/01:00am 8.1 NW 9 13 1010.5 - 0.0 - - - - - - -
26/12:30am 7.7 NW 9 12 1010.3 - 0.0 - - - - - - -
26/12:00am 8.1 NW 8 11 1010.3 - 0.0 - - - - - - -
 
Date/Time
EST
Temp
°C
Wind Pressure Rain since
9am
mm
Weather Cloud Vis
km
Sea
Height
m
Swell
Dir  Spd
kts
Gust
kts
hPa Trend Height
m
Period
s
Dir
25/11:30pm 8.3 NW 9 12 1010.3 - 0.0 - - - - - - -
25/11:00pm 8.6 WNW 10 13 1010.3 - 0.0 - - - - - - -
25/10:30pm 8.4 NW 7 10 1010.3 - 0.0 - - - - - - -
25/10:00pm 8.9 WNW 7 9 1010.1 - 0.0 - - - - - - -
25/09:30pm 8.6 W 5 6 1010.1 - 0.0 - - - - - - -
25/09:00pm 10.9 SW 11 13 1009.8 - 0.0 - - - - - - -
25/08:30pm 11.1 SW 13 15 1009.3 - 0.0 - - - - - - -
25/08:00pm 11.3 SW 10 12 1009.1 - 0.0 - - - - - - -
25/07:30pm 11.6 SW 12 14 1008.6 - 0.0 - - - - - - -
25/07:00pm 12.0 SW 14 17 1007.9 - 0.0 - - - - - - -
25/06:30pm 12.1 SW 12 13 1007.3 - 0.0 - - - - - - -
25/06:00pm 12.4 WSW 13 15 1006.9 - 0.0 - - - - - - -
25/05:30pm 12.9 SW 16 19 1006.4 - 0.0 - - - - - - -
25/05:00pm 13.2 SW 17 20 1005.9 - 0.0 - - - - - - -
25/04:30pm 13.7 SW 17 20 1005.6 - 0.0 - - - - - - -
25/04:00pm 14.3 SW 14 17 1005.3 - 0.0 - - - - - - -
25/03:30pm 14.5 SW 14 17 1005.0 - 0.0 - - - - - - -

Other Formats:

Comma delimited format used in spreadsheet applications
http://www.bom.gov.au/fwo/IDT60701/IDT60701.94951.axf

JavaScript Object Notation format (JSON) in row-major order
http://www.bom.gov.au/fwo/IDT60701/IDT60701.94951.json